Terminal Aerodrome Forecast
Issued by NWS Charleston, WV

Current Version | Previous Version | Graphics & Text | Print | Product List | Glossary Off
Versions: 1 2 3 4 5 6 7 8 9 10 11 12 13 14 15 16 17 18 19 20 21 22

785
FTUS41 KRLX 250236 AAA
TAFCRW
TAF AMD
KCRW 250236Z 2503/2524 07005KT P6SM OVC035
     FM251300 VRB02KT P6SM BKN018
     FM252200 04004KT P6SM BKN035=

USA.gov is the U.S. government's official web portal to all federal, state and local government web resources and services.